Time;durP1;ratioP1;P1;durP2;ratioP2;P2;SDS_P1;SDS_P2;PMS_P1;PMS_P2;Temp;Humidity;BMP_temperature;BMP_pressure;BME280_temperature;BME280_humidity;BME280_pressure;Samples;Min_cycle;Max_cycle;Signal;HPM_P1;HPM_P2
2022/10/16 00:00:48;;;;;;;7.23;2.87;;;15.60;39.60;;;;;;4978276;28;21047;-70
2022/10/16 00:03:15;;;;;;;5.97;3.00;;;15.50;39.70;;;;;;4979754;28;20488;-69
2022/10/16 00:05:43;;;;;;;5.37;2.50;;;15.50;39.80;;;;;;4981736;28;20484;-69
2022/10/16 00:08:13;;;;;;;5.73;2.40;;;15.50;39.80;;;;;;4982662;28;21210;-70
2022/10/16 00:10:41;;;;;;;8.10;2.87;;;15.50;39.80;;;;;;4984567;28;20469;-70
2022/10/16 00:13:08;;;;;;;5.53;2.90;;;15.50;39.70;;;;;;4985003;28;20491;-69
2022/10/16 00:15:36;;;;;;;6.60;3.00;;;15.50;39.70;;;;;;4983012;28;20461;-70
2022/10/16 00:18:04;;;;;;;4.97;2.83;;;15.50;39.70;;;;;;4978926;28;20520;-69
2022/10/16 00:20:33;;;;;;;7.13;2.80;;;15.50;39.60;;;;;;4980198;28;20457;-70
2022/10/16 00:23:00;;;;;;;7.63;3.20;;;15.50;39.50;;;;;;4983727;28;20480;-69
2022/10/16 00:25:26;;;;;;;6.60;3.23;;;15.50;39.50;;;;;;4981230;28;20465;-69
2022/10/16 00:27:55;;;;;;;6.00;3.37;;;15.50;39.60;;;;;;4985417;28;20461;-70
2022/10/16 00:30:21;;;;;;;11.00;2.80;;;15.60;39.30;;;;;;4985627;28;20976;-69
2022/10/16 00:32:48;;;;;;;5.03;2.77;;;15.60;39.00;;;;;;4986586;28;20486;-70
2022/10/16 00:35:15;;;;;;;6.13;2.70;;;15.60;39.10;;;;;;4985873;28;20851;-69
2022/10/16 00:37:42;;;;;;;6.30;2.93;;;15.60;39.10;;;;;;4986897;28;20462;-69
2022/10/16 00:40:10;;;;;;;7.47;2.83;;;15.50;39.10;;;;;;4982044;28;20992;-69
2022/10/16 00:42:37;;;;;;;6.53;2.87;;;15.50;39.30;;;;;;4985700;28;20468;-69
2022/10/16 00:45:06;;;;;;;7.00;3.10;;;15.50;39.30;;;;;;4985335;28;20465;-69
2022/10/16 00:47:37;;;;;;;10.07;3.33;;;15.50;39.20;;;;;;4983124;28;20997;-69
2022/10/16 00:50:08;;;;;;;7.70;3.53;;;15.50;39.30;;;;;;4986165;28;20471;-69
2022/10/16 00:52:36;;;;;;;6.17;2.80;;;15.50;39.40;;;;;;4983770;28;20837;-69
2022/10/16 00:55:04;;;;;;;6.27;3.20;;;15.50;39.40;;;;;;4989102;28;20477;-69
2022/10/16 00:57:31;;;;;;;6.33;2.77;;;15.50;39.50;;;;;;4986997;28;20468;-69
2022/10/16 00:59:58;;;;;;;5.80;2.97;;;15.40;39.40;;;;;;4988909;28;21036;-69
2022/10/16 01:02:26;;;;;;;9.00;2.80;;;15.40;39.40;;;;;;4985076;28;20476;-69
2022/10/16 01:04:55;;;;;;;5.60;3.30;;;15.40;39.40;;;;;;4982488;28;20471;-70
2022/10/16 01:07:33;;;;;;;6.60;3.00;;;15.30;39.40;;;;;;4989615;28;20480;-69
2022/10/16 01:10:10;;;;;;;8.50;2.77;;;15.30;39.50;;;;;;4982112;28;20457;-69
2022/10/16 01:12:44;;;;;;;6.37;3.33;;;15.30;39.60;;;;;;4984019;28;20464;-69
2022/10/16 01:15:18;;;;;;;8.63;3.03;;;15.30;39.50;;;;;;4978292;28;20818;-69
2022/10/16 01:17:52;;;;;;;6.97;3.40;;;15.20;39.40;;;;;;4983128;28;20468;-69
2022/10/16 01:20:28;;;;;;;5.97;3.40;;;15.20;39.50;;;;;;4983889;28;20468;-69
2022/10/16 01:23:15;;;;;;;7.20;2.90;;;15.20;39.50;;;;;;4991529;28;20487;-69
2022/10/16 01:26:00;;;;;;;7.20;2.43;;;15.20;39.90;;;;;;4989156;28;20506;-71
2022/10/16 01:28:35;;;;;;;6.23;3.43;;;15.20;39.90;;;;;;4983401;28;20997;-71
2022/10/16 01:31:03;;;;;;;5.90;2.73;;;15.20;40.00;;;;;;4986014;28;20476;-69
2022/10/16 01:33:36;;;;;;;9.80;3.47;;;15.20;39.90;;;;;;4984022;28;20484;-69
2022/10/16 01:36:08;;;;;;;5.60;2.70;;;15.30;39.70;;;;;;4988663;28;20467;-71
2022/10/16 01:38:37;;;;;;;10.20;3.30;;;15.30;40.10;;;;;;4983666;28;20457;-71
2022/10/16 01:41:09;;;;;;;7.70;2.87;;;15.30;39.80;;;;;;4987144;28;20465;-69
2022/10/16 01:43:41;;;;;;;6.83;3.30;;;15.20;39.90;;;;;;4984821;28;20829;-71
2022/10/16 01:46:09;;;;;;;7.33;3.00;;;15.20;40.00;;;;;;4982479;28;20962;-71
2022/10/16 01:48:37;;;;;;;6.60;3.27;;;15.20;39.90;;;;;;4986391;28;20464;-69
2022/10/16 01:51:07;;;;;;;7.33;3.30;;;15.20;40.00;;;;;;4980496;28;20466;-71
2022/10/16 01:53:35;;;;;;;7.57;3.40;;;15.20;40.10;;;;;;4987444;28;20481;-69
2022/10/16 01:56:05;;;;;;;11.80;3.10;;;15.20;40.10;;;;;;4990168;28;20461;-69
2022/10/16 01:58:35;;;;;;;5.50;3.23;;;15.20;40.00;;;;;;4989860;28;22908;-71
2022/10/16 02:01:08;;;;;;;6.83;3.20;;;15.10;40.10;;;;;;4984868;28;20479;-69
2022/10/16 02:03:38;;;;;;;9.50;3.33;;;15.10;40.20;;;;;;4987898;28;20511;-71
2022/10/16 02:06:05;;;;;;;5.80;3.10;;;15.20;40.10;;;;;;4985892;28;20473;-71
2022/10/16 02:08:32;;;;;;;8.50;3.53;;;15.20;40.00;;;;;;4993646;28;20460;-71
2022/10/16 02:11:01;;;;;;;7.50;3.50;;;15.20;40.00;;;;;;4985197;28;21108;-71
2022/10/16 02:13:33;;;;;;;8.27;3.57;;;15.20;40.60;;;;;;4979153;28;20504;-71
2022/10/16 02:16:00;;;;;;;14.33;3.83;;;15.20;40.10;;;;;;4985465;28;20464;-71
2022/10/16 02:18:29;;;;;;;7.67;3.40;;;15.20;39.90;;;;;;4988467;28;20829;-69
2022/10/16 02:21:00;;;;;;;6.33;2.90;;;15.20;39.90;;;;;;4984186;28;20456;-71
2022/10/16 02:23:38;;;;;;;5.77;3.43;;;15.20;39.90;;;;;;4983087;28;20488;-69
2022/10/16 02:26:09;;;;;;;5.90;2.57;;;15.20;39.90;;;;;;4982588;28;20468;-69
2022/10/16 02:28:41;;;;;;;6.90;2.83;;;15.20;39.80;;;;;;4985359;28;20531;-69
2022/10/16 02:31:12;;;;;;;6.23;2.87;;;15.30;39.80;;;;;;4986222;28;20484;-68
2022/10/16 02:33:43;;;;;;;6.17;2.83;;;15.20;39.90;;;;;;4984421;28;20546;-69
2022/10/16 02:36:10;;;;;;;6.20;2.57;;;15.20;39.90;;;;;;4988120;28;20829;-69
2022/10/16 02:38:38;;;;;;;5.60;3.07;;;15.20;39.80;;;;;;4983263;28;20461;-71
2022/10/16 02:41:05;;;;;;;7.00;3.17;;;15.20;39.80;;;;;;4983583;28;20465;-68
2022/10/16 02:43:33;;;;;;;8.90;2.80;;;15.20;39.90;;;;;;4991201;28;20492;-70
2022/10/16 02:46:00;;;;;;;6.87;3.30;;;15.20;39.90;;;;;;4985199;28;20476;-69
2022/10/16 02:48:26;;;;;;;6.47;3.03;;;15.20;40.00;;;;;;4986898;28;20476;-69
2022/10/16 02:50:55;;;;;;;8.30;2.40;;;15.20;40.00;;;;;;4987280;28;20476;-69
2022/10/16 02:53:21;;;;;;;7.80;2.80;;;15.20;40.00;;;;;;4983047;28;20492;-69
2022/10/16 02:55:48;;;;;;;11.00;3.30;;;15.20;40.00;;;;;;4986923;28;20469;-69
2022/10/16 02:58:15;;;;;;;6.13;2.43;;;15.20;40.10;;;;;;4981840;28;20461;-69
2022/10/16 03:00:42;;;;;;;4.63;2.50;;;15.20;40.00;;;;;;4985436;28;20508;-69
2022/10/16 03:03:09;;;;;;;5.57;2.40;;;15.20;40.00;;;;;;4985336;28;21206;-69
2022/10/16 03:05:35;;;;;;;7.83;2.93;;;15.20;40.10;;;;;;4981572;28;20505;-69
2022/10/16 03:08:03;;;;;;;6.30;2.47;;;15.20;40.10;;;;;;4985401;28;21028;-68
2022/10/16 03:10:30;;;;;;;7.50;2.90;;;15.20;40.10;;;;;;4986693;28;20468;-69
2022/10/16 03:12:57;;;;;;;5.70;3.17;;;15.20;40.10;;;;;;4985384;28;21020;-68
2022/10/16 03:15:24;;;;;;;6.93;3.17;;;15.20;40.00;;;;;;4985077;28;20465;-69
2022/10/16 03:17:50;;;;;;;7.00;3.00;;;15.20;40.10;;;;;;4986431;28;20459;-69
2022/10/16 03:20:17;;;;;;;8.90;2.77;;;15.20;40.10;;;;;;4982908;28;20468;-69
2022/10/16 03:22:44;;;;;;;5.63;2.70;;;15.20;40.20;;;;;;4984064;28;20492;-69
2022/10/16 03:25:12;;;;;;;6.00;2.43;;;15.20;40.10;;;;;;4987185;28;20473;-71
2022/10/16 03:27:39;;;;;;;7.00;2.90;;;15.20;40.10;;;;;;4984656;28;21015;-69
2022/10/16 03:30:07;;;;;;;6.37;2.90;;;15.20;40.10;;;;;;4988314;28;20461;-69
2022/10/16 03:32:33;;;;;;;7.80;3.53;;;15.20;40.00;;;;;;4984962;28;20492;-70
2022/10/16 03:35:00;;;;;;;9.53;3.73;;;15.20;40.00;;;;;;4983286;28;20849;-68
2022/10/16 03:37:27;;;;;;;6.40;2.53;;;15.30;40.10;;;;;;4985906;28;20961;-69
2022/10/16 03:39:54;;;;;;;8.63;3.07;;;15.30;40.10;;;;;;4983128;28;20481;-69
2022/10/16 03:42:24;;;;;;;6.70;3.00;;;15.30;40.00;;;;;;4996826;23;20496;-69
2022/10/16 03:44:51;;;;;;;6.73;3.50;;;15.30;40.70;;;;;;4983369;28;20508;-69
2022/10/16 03:47:21;;;;;;;6.20;3.13;;;15.30;40.00;;;;;;4986888;28;20476;-69
2022/10/16 03:49:48;;;;;;;6.50;3.50;;;15.30;40.00;;;;;;4983417;28;20835;-68
2022/10/16 03:52:14;;;;;;;6.20;2.87;;;15.20;40.10;;;;;;4977586;28;20485;-68
2022/10/16 03:54:41;;;;;;;7.67;3.30;;;15.20;41.10;;;;;;4985957;28;20841;-69
2022/10/16 03:57:08;;;;;;;7.47;2.87;;;15.20;40.30;;;;;;4984586;28;21137;-68
2022/10/16 03:59:36;;;;;;;7.73;3.00;;;15.20;40.50;;;;;;4986245;28;20461;-69
2022/10/16 04:02:03;;;;;;;10.10;3.17;;;15.20;40.60;;;;;;4979443;28;20480;-68
2022/10/16 04:04:30;;;;;;;7.23;2.70;;;15.20;40.60;;;;;;4988905;28;20457;-68
2022/10/16 04:06:56;;;;;;;6.23;2.70;;;15.20;40.50;;;;;;4981327;28;20461;-68
2022/10/16 04:09:23;;;;;;;7.50;3.63;;;15.20;40.40;;;;;;4981048;28;20469;-69
2022/10/16 04:11:50;;;;;;;6.47;3.20;;;15.20;40.30;;;;;;4983098;28;21057;-68
2022/10/16 04:14:17;;;;;;;6.20;3.20;;;15.20;40.30;;;;;;4984141;28;20472;-68
2022/10/16 04:16:45;;;;;;;5.27;2.87;;;15.20;40.40;;;;;;4986757;28;20486;-68
2022/10/16 04:19:13;;;;;;;7.97;3.63;;;15.20;40.20;;;;;;4984465;28;20467;-68
2022/10/16 04:21:40;;;;;;;10.60;3.43;;;15.20;40.20;;;;;;4983390;28;20558;-68
2022/10/16 04:24:06;;;;;;;7.30;3.17;;;15.20;40.30;;;;;;4986542;28;20461;-68
2022/10/16 04:26:33;;;;;;;9.23;2.70;;;15.10;40.30;;;;;;4982425;28;20460;-68
2022/10/16 04:29:00;;;;;;;7.77;3.60;;;15.10;40.40;;;;;;4978621;28;20485;-68
2022/10/16 04:31:27;;;;;;;7.30;2.37;;;15.10;40.40;;;;;;4983775;28;20494;-68
2022/10/16 04:33:55;;;;;;;8.00;3.63;;;15.00;40.30;;;;;;4973282;28;20465;-69
2022/10/16 04:36:22;;;;;;;9.80;3.37;;;14.90;40.30;;;;;;4985556;28;20472;-69
2022/10/16 04:38:48;;;;;;;9.43;3.10;;;14.90;40.30;;;;;;4982292;28;20465;-69
2022/10/16 04:41:15;;;;;;;6.70;3.53;;;14.90;40.40;;;;;;4990860;28;21046;-68
2022/10/16 04:43:42;;;;;;;6.77;3.20;;;14.90;40.30;;;;;;4982786;28;20468;-68
2022/10/16 04:46:09;;;;;;;7.40;2.60;;;14.90;40.40;;;;;;4985359;28;20465;-69
2022/10/16 04:48:36;;;;;;;6.90;3.00;;;14.90;40.60;;;;;;4983168;28;20480;-68
2022/10/16 04:51:05;;;;;;;5.93;2.90;;;14.90;40.70;;;;;;4983355;28;20496;-68
2022/10/16 04:53:31;;;;;;;6.43;3.23;;;14.90;40.80;;;;;;4981494;28;20475;-68
2022/10/16 04:55:58;;;;;;;8.60;3.10;;;14.90;40.80;;;;;;4978382;28;20464;-68
2022/10/16 04:58:25;;;;;;;6.63;3.20;;;14.90;40.70;;;;;;4981785;28;20472;-68
2022/10/16 05:00:52;;;;;;;11.70;4.00;;;14.90;40.80;;;;;;4984230;28;20488;-68
2022/10/16 05:03:18;;;;;;;7.00;3.07;;;14.90;40.80;;;;;;4986366;28;20467;-68
2022/10/16 05:05:47;;;;;;;6.50;3.00;;;14.90;40.90;;;;;;4976623;28;20472;-68
2022/10/16 05:08:17;;;;;;;8.50;3.73;;;14.90;40.90;;;;;;4979700;28;20520;-68
2022/10/16 05:10:45;;;;;;;6.30;3.03;;;14.90;41.00;;;;;;4982512;28;20548;-69
2022/10/16 05:13:12;;;;;;;16.20;3.27;;;14.90;41.00;;;;;;4984822;28;20462;-68
2022/10/16 05:15:39;;;;;;;7.60;3.00;;;14.90;40.90;;;;;;4981265;28;20479;-68
2022/10/16 05:18:06;;;;;;;8.93;3.90;;;14.90;41.00;;;;;;4981012;28;20978;-68
2022/10/16 05:20:33;;;;;;;6.00;2.80;;;14.80;40.80;;;;;;4983007;28;20453;-69
2022/10/16 05:23:00;;;;;;;12.80;4.60;;;14.80;40.80;;;;;;4984076;28;20547;-68
2022/10/16 05:25:28;;;;;;;7.70;2.90;;;14.80;41.00;;;;;;4983702;28;20479;-68
2022/10/16 05:27:55;;;;;;;6.90;3.10;;;14.80;41.00;;;;;;4983576;28;20499;-69
2022/10/16 05:30:21;;;;;;;7.83;3.30;;;14.70;41.10;;;;;;4980918;28;20468;-69
2022/10/16 05:32:49;;;;;;;9.40;3.80;;;14.70;41.30;;;;;;4980215;28;20476;-69
2022/10/16 05:35:17;;;;;;;6.17;3.10;;;14.70;41.30;;;;;;4983546;28;20839;-69
2022/10/16 05:37:44;;;;;;;7.13;3.40;;;14.70;41.60;;;;;;4979543;28;21751;-68
2022/10/16 05:40:11;;;;;;;6.23;3.20;;;14.70;41.80;;;;;;4982325;28;21069;-68
2022/10/16 05:42:39;;;;;;;8.00;3.70;;;14.70;41.80;;;;;;4979302;28;20579;-68
2022/10/16 05:45:09;;;;;;;6.60;4.13;;;14.70;41.90;;;;;;4983136;28;20472;-68
2022/10/16 05:47:36;;;;;;;9.93;3.73;;;14.70;42.00;;;;;;4984962;28;20507;-69
2022/10/16 05:50:03;;;;;;;10.60;4.47;;;14.70;42.10;;;;;;4980420;28;20941;-69
2022/10/16 05:52:30;;;;;;;8.50;3.10;;;14.70;42.20;;;;;;4988311;28;21024;-68
2022/10/16 05:54:57;;;;;;;5.80;2.67;;;14.80;41.80;;;;;;4983716;28;20464;-68
2022/10/16 05:57:24;;;;;;;7.70;3.40;;;14.90;41.90;;;;;;4985675;28;20452;-68
2022/10/16 05:59:52;;;;;;;5.90;3.03;;;14.80;42.10;;;;;;4987457;28;20457;-68
2022/10/16 06:02:19;;;;;;;5.57;2.93;;;14.90;42.40;;;;;;4987767;28;20881;-68
2022/10/16 06:04:45;;;;;;;12.93;3.30;;;14.90;42.10;;;;;;4983712;28;20968;-69
2022/10/16 06:07:12;;;;;;;8.70;3.10;;;14.90;41.90;;;;;;4983744;28;20473;-68
2022/10/16 06:09:39;;;;;;;6.23;2.80;;;14.90;41.70;;;;;;4988827;28;20487;-68
2022/10/16 06:12:05;;;;;;;7.70;3.10;;;15.00;41.50;;;;;;4979544;28;20480;-67
2022/10/16 06:14:33;;;;;;;6.77;3.23;;;15.00;41.40;;;;;;4988694;28;20465;-68
2022/10/16 06:17:01;;;;;;;6.93;2.80;;;15.20;41.40;;;;;;4983783;28;20476;-68
2022/10/16 06:19:28;;;;;;;5.63;3.00;;;15.30;41.20;;;;;;4986707;28;20461;-68
2022/10/16 06:21:57;;;;;;;9.70;2.97;;;15.50;41.10;;;;;;4992755;28;20866;-68
2022/10/16 06:24:24;;;;;;;5.50;2.60;;;15.50;40.60;;;;;;4983728;28;20456;-69
2022/10/16 06:26:51;;;;;;;12.13;3.07;;;15.50;40.40;;;;;;4986684;28;20461;-68
2022/10/16 06:29:18;;;;;;;7.73;2.47;;;15.50;40.20;;;;;;4981629;28;20488;-68
2022/10/16 06:31:44;;;;;;;7.57;2.50;;;15.60;39.90;;;;;;4982172;28;20508;-68
2022/10/16 06:34:13;;;;;;;5.30;2.03;;;15.60;39.70;;;;;;4981561;28;20469;-62
2022/10/16 06:36:39;;;;;;;6.23;2.77;;;15.60;39.60;;;;;;4981763;28;20469;-62
2022/10/16 06:39:07;;;;;;;4.93;2.33;;;15.70;39.50;;;;;;4987645;28;20457;-61
2022/10/16 06:41:34;;;;;;;6.27;2.13;;;15.70;39.30;;;;;;4978842;28;20492;-61
2022/10/16 06:44:01;;;;;;;4.67;2.13;;;15.80;39.00;;;;;;4983820;28;20467;-60
2022/10/16 06:46:28;;;;;;;5.33;2.37;;;15.80;38.60;;;;;;4985004;28;20457;-60
2022/10/16 06:48:55;;;;;;;5.20;2.30;;;15.90;38.30;;;;;;4982639;28;20862;-61
2022/10/16 06:51:25;;;;;;;4.73;2.20;;;16.00;37.90;;;;;;4981141;28;20512;-61
2022/10/16 06:53:53;;;;;;;4.97;2.27;;;16.10;38.30;;;;;;4977247;28;20468;-61
2022/10/16 06:56:22;;;;;;;6.97;2.10;;;16.10;37.90;;;;;;4978182;28;20464;-61
2022/10/16 06:58:49;;;;;;;4.70;2.10;;;16.30;37.80;;;;;;4984233;28;20454;-61
2022/10/16 07:01:17;;;;;;;8.17;3.60;;;16.40;37.50;;;;;;4986195;28;20487;-61
2022/10/16 07:03:46;;;;;;;4.97;1.80;;;16.40;37.20;;;;;;4978974;28;20500;-61
2022/10/16 07:06:14;;;;;;;6.30;2.47;;;16.50;37.00;;;;;;4979566;28;20964;-61
2022/10/16 07:08:44;;;;;;;5.63;2.40;;;16.50;37.40;;;;;;4987306;28;20515;-61
2022/10/16 07:11:13;;;;;;;10.27;2.43;;;16.50;36.50;;;;;;4979638;28;20493;-61
2022/10/16 07:13:41;;;;;;;4.37;2.10;;;16.60;36.00;;;;;;4973789;28;20471;-61
2022/10/16 07:16:10;;;;;;;6.90;2.33;;;16.60;36.00;;;;;;4971511;28;20461;-62
2022/10/16 07:18:38;;;;;;;5.23;2.33;;;16.70;36.00;;;;;;4983608;28;20459;-61
2022/10/16 07:21:06;;;;;;;6.73;2.10;;;16.80;35.70;;;;;;4976008;28;20496;-60
2022/10/16 07:23:33;;;;;;;10.07;2.30;;;17.00;35.40;;;;;;4981649;28;20994;-60
2022/10/16 07:26:02;;;;;;;6.87;2.37;;;17.10;35.50;;;;;;4980649;28;20828;-61
2022/10/16 07:28:29;;;;;;;4.90;2.60;;;17.20;34.60;;;;;;4981432;28;20485;-62
2022/10/16 07:30:56;;;;;;;8.30;2.47;;;17.30;34.50;;;;;;4981991;28;20554;-61
2022/10/16 07:33:23;;;;;;;8.37;2.50;;;17.50;33.90;;;;;;4987876;28;20473;-61
2022/10/16 07:35:51;;;;;;;7.10;2.47;;;17.60;33.40;;;;;;4982339;28;20472;-61
2022/10/16 07:38:18;;;;;;;11.17;2.93;;;17.80;32.50;;;;;;4981154;28;20457;-61
2022/10/16 07:40:45;;;;;;;6.43;2.03;;;18.20;32.50;;;;;;4986089;28;20465;-61
2022/10/16 07:43:13;;;;;;;16.50;3.10;;;18.60;31.30;;;;;;4981124;28;20462;-67
2022/10/16 07:45:48;;;;;;;6.50;2.10;;;19.10;30.40;;;;;;4975628;28;20473;-65
2022/10/16 07:48:15;;;;;;;7.80;2.00;;;20.30;28.30;;;;;;4981945;28;20531;-63
2022/10/16 07:50:42;;;;;;;8.80;2.30;;;20.80;26.10;;;;;;4978893;28;20463;-63
2022/10/16 07:53:09;;;;;;;7.20;1.90;;;20.60;26.00;;;;;;4993717;28;20467;-64
2022/10/16 07:55:36;;;;;;;5.57;2.03;;;20.40;26.10;;;;;;4986594;28;20487;-64
2022/10/16 07:58:02;;;;;;;5.40;1.60;;;20.20;25.70;;;;;;4979913;28;20960;-63
2022/10/16 08:00:31;;;;;;;5.67;2.43;;;20.00;26.30;;;;;;4975595;28;20460;-73
2022/10/16 08:02:59;;;;;;;6.40;1.60;;;19.90;26.20;;;;;;4976839;28;20558;-73
2022/10/16 08:05:26;;;;;;;5.63;2.00;;;19.70;26.70;;;;;;4979416;28;20473;-75
2022/10/16 08:07:54;;;;;;;5.83;2.20;;;19.60;27.00;;;;;;4978069;28;20471;-73
2022/10/16 08:10:23;;;;;;;5.17;2.00;;;19.60;27.40;;;;;;4980323;28;20484;-73
2022/10/16 08:12:50;;;;;;;6.23;2.17;;;19.50;27.80;;;;;;4979618;28;20992;-74
2022/10/16 08:15:17;;;;;;;6.23;2.27;;;19.40;28.00;;;;;;4982764;28;20964;-73
2022/10/16 08:17:46;;;;;;;6.43;2.50;;;19.40;28.10;;;;;;4972280;28;20475;-73
2022/10/16 08:20:13;;;;;;;7.90;2.37;;;19.30;28.20;;;;;;4980483;28;21083;-73
2022/10/16 08:22:39;;;;;;;6.43;2.20;;;19.30;28.40;;;;;;4984834;28;20497;-73
2022/10/16 08:25:07;;;;;;;6.30;2.60;;;19.20;28.50;;;;;;4985299;28;20539;-74
2022/10/16 08:27:34;;;;;;;8.03;2.70;;;19.20;28.70;;;;;;4980724;28;20793;-73
2022/10/16 08:30:01;;;;;;;5.30;2.13;;;19.20;29.10;;;;;;4977904;28;20472;-74
2022/10/16 08:32:27;;;;;;;7.77;2.43;;;19.20;29.10;;;;;;4980592;28;20500;-76
2022/10/16 08:34:56;;;;;;;7.00;2.60;;;19.20;29.10;;;;;;4981086;28;20461;-76
2022/10/16 08:37:22;;;;;;;4.57;2.20;;;19.20;29.20;;;;;;4978473;28;20465;-76
2022/10/16 08:39:49;;;;;;;4.80;2.27;;;19.10;29.30;;;;;;4982066;28;20552;-75
2022/10/16 08:42:36;;;;;;;5.53;2.10;;;19.10;29.40;;;;;;4981218;28;21012;-76
2022/10/16 08:45:25;;;;;;;5.70;2.30;;;19.00;30.10;;;;;;4981418;28;20628;-76
2022/10/16 08:48:01;;;;;;;4.23;2.20;;;19.00;29.60;;;;;;4976941;28;20456;-76
2022/10/16 08:50:32;;;;;;;6.97;2.10;;;18.90;29.80;;;;;;4977631;28;20489;-73
2022/10/16 08:52:59;;;;;;;5.43;2.03;;;18.90;29.90;;;;;;4970910;28;20468;-75
2022/10/16 08:55:33;;;;;;;11.20;2.90;;;18.90;30.10;;;;;;4983270;28;20464;-75
2022/10/16 08:58:00;;;;;;;5.10;2.30;;;18.90;30.20;;;;;;4981962;28;20824;-73
2022/10/16 09:00:28;;;;;;;4.50;2.27;;;18.90;30.20;;;;;;4969687;28;20458;-76
2022/10/16 09:03:07;;;;;;;5.90;2.77;;;18.90;30.20;;;;;;4980386;28;20472;-75
2022/10/16 09:05:55;;;;;;;7.10;2.70;;;19.00;30.20;;;;;;4978186;28;20555;-76
2022/10/16 09:08:30;;;;;;;6.40;2.40;;;19.00;30.10;;;;;;4983638;28;20461;-73
2022/10/16 09:11:00;;;;;;;5.77;2.70;;;19.00;29.90;;;;;;4976501;28;20519;-73
2022/10/16 09:13:33;;;;;;;4.53;2.03;;;19.00;29.80;;;;;;4980176;28;20462;-74
2022/10/16 09:16:13;;;;;;;7.47;3.00;;;19.10;29.70;;;;;;4980293;28;20457;-73
2022/10/16 09:18:45;;;;;;;6.07;2.50;;;19.10;29.60;;;;;;4979935;28;20464;-74
2022/10/16 09:21:19;;;;;;;5.50;2.00;;;19.10;29.60;;;;;;4986718;28;21019;-74
2022/10/16 09:23:48;;;;;;;5.47;2.70;;;19.20;29.30;;;;;;4977963;28;20988;-75
2022/10/16 09:26:17;;;;;;;7.33;2.17;;;19.20;29.40;;;;;;4983584;28;20488;-74
2022/10/16 09:28:45;;;;;;;7.20;2.53;;;19.20;29.40;;;;;;4982332;28;20483;-75
2022/10/16 09:31:18;;;;;;;4.47;2.10;;;19.30;29.20;;;;;;4982956;28;20492;-73
2022/10/16 09:33:48;;;;;;;4.90;2.00;;;19.30;29.30;;;;;;4976651;28;20469;-73
2022/10/16 09:36:16;;;;;;;7.57;2.20;;;19.40;29.30;;;;;;4978971;28;20465;-73
2022/10/16 09:38:43;;;;;;;4.20;1.93;;;19.40;29.40;;;;;;4977483;28;20482;-73
2022/10/16 09:41:18;;;;;;;4.60;2.10;;;19.40;29.10;;;;;;4983801;28;21033;-73
2022/10/16 09:43:50;;;;;;;4.00;1.80;;;19.50;28.80;;;;;;4975216;28;20467;-74
2022/10/16 09:46:28;;;;;;;6.60;1.83;;;19.50;28.50;;;;;;4980947;28;20473;-73
2022/10/16 09:48:57;;;;;;;6.43;2.00;;;19.60;28.10;;;;;;4982950;28;20488;-74
2022/10/16 09:51:27;;;;;;;5.07;2.17;;;19.70;28.20;;;;;;4986030;28;20477;-74
2022/10/16 09:54:00;;;;;;;6.10;2.03;;;19.70;28.40;;;;;;4981060;28;21211;-74
2022/10/16 09:56:29;;;;;;;7.47;2.03;;;19.80;28.50;;;;;;4983656;28;20460;-74
2022/10/16 09:58:57;;;;;;;6.80;2.20;;;20.00;28.60;;;;;;4978452;28;20693;-73
2022/10/16 10:01:29;;;;;;;6.47;1.93;;;20.30;28.20;;;;;;4980265;28;20480;-74
2022/10/16 10:04:00;;;;;;;6.23;2.40;;;20.50;27.90;;;;;;4990946;23;20485;-72
2022/10/16 10:06:39;;;;;;;5.47;2.30;;;20.90;27.20;;;;;;4987920;28;21000;-74
2022/10/16 10:09:18;;;;;;;6.63;1.90;;;21.30;26.40;;;;;;4982110;28;21091;-74
2022/10/16 10:11:51;;;;;;;4.97;2.37;;;21.90;25.10;;;;;;4979037;28;20467;-74
2022/10/16 10:14:37;;;;;;;6.63;2.13;;;22.10;23.80;;;;;;4978643;28;20460;-74
2022/10/16 10:17:12;;;;;;;5.40;1.60;;;22.20;23.30;;;;;;4980502;28;20543;-74
2022/10/16 10:19:41;;;;;;;7.73;2.57;;;22.10;22.90;;;;;;4983930;28;20552;-74
2022/10/16 10:22:23;;;;;;;10.20;2.37;;;22.00;22.90;;;;;;4983125;28;20524;-74
2022/10/16 10:25:36;;;;;;;5.07;2.00;;;21.90;23.30;;;;;;4977153;28;20526;-74
2022/10/16 10:28:32;;;;;;;3.97;1.80;;;21.80;23.50;;;;;;4978311;28;20470;-74
2022/10/16 10:31:07;;;;;;;5.23;1.83;;;21.80;23.50;;;;;;4983212;28;20858;-74
2022/10/16 10:33:43;;;;;;;6.20;1.90;;;21.80;23.40;;;;;;4981310;28;20468;-74
2022/10/16 10:36:23;;;;;;;4.50;2.13;;;21.90;23.40;;;;;;4987614;28;21079;-74
2022/10/16 10:38:57;;;;;;;5.80;2.57;;;22.00;24.00;;;;;;4984540;28;20960;-74
2022/10/16 10:42:00;;;;;;;5.03;2.10;;;22.20;23.90;;;;;;4988854;28;20543;-74
2022/10/16 10:44:52;;;;;;;6.57;2.13;;;22.40;22.50;;;;;;4970034;28;20456;-74
2022/10/16 10:47:27;;;;;;;4.47;2.00;;;22.50;22.30;;;;;;4984917;28;20966;-75
2022/10/16 10:50:03;;;;;;;4.67;2.50;;;22.60;22.50;;;;;;4977567;28;20491;-74
2022/10/16 10:52:50;;;;;;;5.40;2.40;;;22.70;22.80;;;;;;4986700;28;20479;-75
2022/10/16 10:55:26;;;;;;;5.63;1.90;;;23.10;21.60;;;;;;4983784;28;20531;-74
2022/10/16 10:58:11;;;;;;;6.77;2.87;;;23.20;20.80;;;;;;4980416;28;20460;-75
2022/10/16 11:00:50;;;;;;;4.77;2.00;;;23.40;20.40;;;;;;4983030;28;20495;-74
2022/10/16 11:03:36;;;;;;;4.80;2.37;;;23.40;20.10;;;;;;4989238;28;20461;-75
2022/10/16 11:06:08;;;;;;;5.90;2.07;;;23.30;20.20;;;;;;4980157;28;20977;-74
2022/10/16 11:08:38;;;;;;;10.00;3.00;;;23.30;20.40;;;;;;4982998;28;20472;-74
2022/10/16 11:11:13;;;;;;;4.60;1.97;;;23.20;20.40;;;;;;4980226;28;20480;-74
2022/10/16 11:13:45;;;;;;;7.27;2.50;;;23.10;20.50;;;;;;4987925;28;20472;-74
2022/10/16 11:16:18;;;;;;;4.20;1.90;;;23.00;20.60;;;;;;4978735;28;20457;-74
2022/10/16 11:18:52;;;;;;;4.70;2.20;;;23.00;21.10;;;;;;4981146;28;20469;-74
2022/10/16 11:21:21;;;;;;;8.30;2.77;;;23.00;21.50;;;;;;4975600;28;20476;-74
2022/10/16 11:23:56;;;;;;;9.77;2.77;;;23.10;21.80;;;;;;4975588;28;20464;-74
2022/10/16 11:26:27;;;;;;;7.27;2.33;;;23.20;21.40;;;;;;4976401;28;20456;-74
2022/10/16 11:28:58;;;;;;;5.40;2.23;;;23.40;20.70;;;;;;4977567;28;20461;-74
2022/10/16 11:31:33;;;;;;;9.13;1.70;;;23.50;20.20;;;;;;4985790;28;20463;-73
2022/10/16 11:34:11;;;;;;;4.27;1.83;;;23.60;19.70;;;;;;4980078;28;21019;-74
2022/10/16 11:36:43;;;;;;;5.83;1.70;;;23.60;19.50;;;;;;4981774;28;20518;-74
2022/10/16 11:39:21;;;;;;;7.20;2.13;;;23.90;19.90;;;;;;4975946;28;20488;-74
2022/10/16 11:41:54;;;;;;;4.30;1.80;;;25.40;17.40;;;;;;4980599;28;20903;-74
2022/10/16 11:44:35;;;;;;;6.53;1.60;;;26.90;14.20;;;;;;4977788;28;20460;-74
2022/10/16 11:47:10;;;;;;;5.40;1.50;;;27.70;11.90;;;;;;4980112;28;20549;-74
2022/10/16 11:49:38;;;;;;;5.80;2.10;;;27.40;10.90;;;;;;4976937;28;20618;-76
2022/10/16 11:52:14;;;;;;;6.03;1.67;;;27.00;11.90;;;;;;4980325;28;20473;-77
2022/10/16 11:54:49;;;;;;;4.33;1.10;;;26.70;12.00;;;;;;4976801;28;20460;-76
2022/10/16 11:57:21;;;;;;;5.73;1.40;;;26.40;12.70;;;;;;4986586;28;20459;-74
2022/10/16 11:59:52;;;;;;;4.20;1.90;;;26.30;13.30;;;;;;4981479;28;20484;-74
2022/10/16 12:02:39;;;;;;;4.37;1.40;;;26.40;13.60;;;;;;4977921;28;20581;-77
2022/10/16 12:05:24;;;;;;;4.00;1.50;;;26.70;12.90;;;;;;4984348;28;20468;-76
2022/10/16 12:08:03;;;;;;;7.70;1.70;;;27.00;13.60;;;;;;4982225;28;20461;-78
2022/10/16 12:10:36;;;;;;;5.50;1.50;;;27.80;13.30;;;;;;4982635;28;20493;-76
2022/10/16 12:13:05;;;;;;;4.47;1.83;;;28.40;11.20;;;;;;4981061;28;20576;-77
2022/10/16 12:15:33;;;;;;;6.10;1.47;;;28.70;11.00;;;;;;4978147;28;20471;-75
2022/10/16 12:18:00;;;;;;;4.27;1.50;;;29.00;10.80;;;;;;4980304;28;20491;-75
2022/10/16 12:20:31;;;;;;;4.67;1.40;;;29.20;8.90;;;;;;4980910;28;20481;-75
2022/10/16 12:23:01;;;;;;;5.63;1.47;;;29.30;9.20;;;;;;4979691;28;21726;-75
2022/10/16 12:25:30;;;;;;;5.90;1.50;;;29.00;9.40;;;;;;4978883;28;20560;-75
2022/10/16 12:28:04;;;;;;;8.60;2.03;;;28.80;8.70;;;;;;4975135;28;20464;-75
2022/10/16 12:30:33;;;;;;;3.80;1.30;;;28.70;8.70;;;;;;4977808;28;20495;-76
2022/10/16 12:33:03;;;;;;;3.80;1.37;;;28.30;9.10;;;;;;4977330;28;20471;-75
2022/10/16 12:35:33;;;;;;;3.53;1.20;;;27.80;10.10;;;;;;4979647;28;21143;-76
2022/10/16 12:38:14;;;;;;;5.50;1.33;;;27.30;10.20;;;;;;4975578;28;20472;-75
2022/10/16 12:40:42;;;;;;;4.80;0.93;;;26.90;9.50;;;;;;4978096;28;20532;-76
2022/10/16 12:43:26;;;;;;;3.97;1.27;;;26.60;10.00;;;;;;4981479;28;20465;-76
2022/10/16 12:46:01;;;;;;;4.07;1.20;;;26.30;11.00;;;;;;4982803;28;20970;-75
2022/10/16 12:48:28;;;;;;;3.63;1.03;;;26.10;10.60;;;;;;4979774;28;21064;-76
2022/10/16 12:50:55;;;;;;;3.60;1.13;;;25.90;10.90;;;;;;4974681;28;20489;-75
2022/10/16 12:53:25;;;;;;;6.03;1.30;;;25.70;12.00;;;;;;4982432;28;20576;-75
2022/10/16 12:56:09;;;;;;;3.80;1.30;;;25.50;12.80;;;;;;4977355;28;20474;-76
2022/10/16 12:58:52;;;;;;;4.87;1.27;;;25.40;13.20;;;;;;4978102;28;20461;-75
2022/10/16 13:01:35;;;;;;;4.83;1.53;;;25.30;13.80;;;;;;4983863;28;21253;-75